sensor_id;sensor_type;location;lat;lon;timestamp;P1;durP1;ratioP1;P2;durP2;ratioP2
1693;SDS011;71975;47.068;15.408;2023-08-30T00:00:19;0.80;;;0.60;;
1693;SDS011;71975;47.068;15.408;2023-08-30T00:05:24;0.50;;;0.30;;
1693;SDS011;71975;47.068;15.408;2023-08-30T00:10:29;0.70;;;0.47;;
1693;SDS011;71975;47.068;15.408;2023-08-30T00:15:32;0.70;;;0.50;;
1693;SDS011;71975;47.068;15.408;2023-08-30T00:20:36;1.60;;;0.63;;
1693;SDS011;71975;47.068;15.408;2023-08-30T00:25:39;0.60;;;0.40;;
1693;SDS011;71975;47.068;15.408;2023-08-30T00:30:42;0.70;;;0.40;;
1693;SDS011;71975;47.068;15.408;2023-08-30T00:35:46;1.40;;;0.53;;
1693;SDS011;71975;47.068;15.408;2023-08-30T00:40:49;1.57;;;0.40;;
1693;SDS011;71975;47.068;15.408;2023-08-30T00:45:51;1.10;;;0.50;;
1693;SDS011;71975;47.068;15.408;2023-08-30T00:50:56;0.70;;;0.40;;
1693;SDS011;71975;47.068;15.408;2023-08-30T00:55:59;1.00;;;0.37;;
1693;SDS011;71975;47.068;15.408;2023-08-30T01:01:02;0.97;;;0.50;;
1693;SDS011;71975;47.068;15.408;2023-08-30T01:06:10;0.60;;;0.30;;
1693;SDS011;71975;47.068;15.408;2023-08-30T01:11:15;0.80;;;0.40;;
1693;SDS011;71975;47.068;15.408;2023-08-30T01:16:34;0.93;;;0.60;;
1693;SDS011;71975;47.068;15.408;2023-08-30T01:21:41;0.80;;;0.50;;
1693;SDS011;71975;47.068;15.408;2023-08-30T01:27:01;0.70;;;0.40;;
1693;SDS011;71975;47.068;15.408;2023-08-30T01:32:10;0.70;;;0.40;;
1693;SDS011;71975;47.068;15.408;2023-08-30T01:37:14;1.17;;;0.63;;
1693;SDS011;71975;47.068;15.408;2023-08-30T01:42:19;0.70;;;0.40;;
1693;SDS011;71975;47.068;15.408;2023-08-30T01:47:23;0.70;;;0.40;;
1693;SDS011;71975;47.068;15.408;2023-08-30T01:52:28;0.70;;;0.40;;
1693;SDS011;71975;47.068;15.408;2023-08-30T01:57:32;0.60;;;0.40;;
1693;SDS011;71975;47.068;15.408;2023-08-30T02:02:35;0.77;;;0.50;;
1693;SDS011;71975;47.068;15.408;2023-08-30T02:07:40;0.70;;;0.50;;
1693;SDS011;71975;47.068;15.408;2023-08-30T02:12:52;1.83;;;0.50;;
1693;SDS011;71975;47.068;15.408;2023-08-30T02:17:56;0.90;;;0.70;;
1693;SDS011;71975;47.068;15.408;2023-08-30T02:22:59;1.40;;;0.53;;
1693;SDS011;71975;47.068;15.408;2023-08-30T02:28:16;1.40;;;0.67;;
1693;SDS011;71975;47.068;15.408;2023-08-30T02:33:19;3.03;;;0.60;;
1693;SDS011;71975;47.068;15.408;2023-08-30T02:38:22;0.80;;;0.60;;
1693;SDS011;71975;47.068;15.408;2023-08-30T02:43:26;3.10;;;0.73;;
1693;SDS011;71975;47.068;15.408;2023-08-30T02:48:29;1.53;;;1.03;;
1693;SDS011;71975;47.068;15.408;2023-08-30T02:53:32;1.50;;;1.33;;
1693;SDS011;71975;47.068;15.408;2023-08-30T02:58:36;1.43;;;0.93;;
1693;SDS011;71975;47.068;15.408;2023-08-30T03:03:39;0.90;;;0.73;;
1693;SDS011;71975;47.068;15.408;2023-08-30T03:08:42;1.10;;;0.73;;
1693;SDS011;71975;47.068;15.408;2023-08-30T03:13:46;1.03;;;0.70;;
1693;SDS011;71975;47.068;15.408;2023-08-30T03:18:49;2.63;;;0.70;;
1693;SDS011;71975;47.068;15.408;2023-08-30T03:23:52;1.40;;;0.90;;
1693;SDS011;71975;47.068;15.408;2023-08-30T03:28:56;0.90;;;0.60;;
1693;SDS011;71975;47.068;15.408;2023-08-30T03:33:59;2.00;;;0.60;;
1693;SDS011;71975;47.068;15.408;2023-08-30T03:39:02;0.83;;;0.77;;
1693;SDS011;71975;47.068;15.408;2023-08-30T03:44:06;1.13;;;0.53;;
1693;SDS011;71975;47.068;15.408;2023-08-30T03:49:09;1.67;;;0.63;;
1693;SDS011;71975;47.068;15.408;2023-08-30T03:54:12;0.93;;;0.70;;
1693;SDS011;71975;47.068;15.408;2023-08-30T03:59:19;1.10;;;0.67;;
1693;SDS011;71975;47.068;15.408;2023-08-30T04:04:25;1.00;;;0.70;;
1693;SDS011;71975;47.068;15.408;2023-08-30T04:09:28;0.97;;;0.70;;
1693;SDS011;71975;47.068;15.408;2023-08-30T04:14:33;0.97;;;0.83;;
1693;SDS011;71975;47.068;15.408;2023-08-30T04:19:36;1.93;;;0.80;;
1693;SDS011;71975;47.068;15.408;2023-08-30T04:24:38;1.97;;;0.93;;
1693;SDS011;71975;47.068;15.408;2023-08-30T04:29:42;1.30;;;1.10;;
1693;SDS011;71975;47.068;15.408;2023-08-30T04:34:46;1.17;;;0.73;;
1693;SDS011;71975;47.068;15.408;2023-08-30T04:39:49;1.70;;;1.13;;
1693;SDS011;71975;47.068;15.408;2023-08-30T04:44:53;0.80;;;0.80;;
1693;SDS011;71975;47.068;15.408;2023-08-30T04:49:57;1.40;;;1.00;;
1693;SDS011;71975;47.068;15.408;2023-08-30T04:55:01;1.40;;;0.60;;
1693;SDS011;71975;47.068;15.408;2023-08-30T05:00:06;3.13;;;0.97;;
1693;SDS011;71975;47.068;15.408;2023-08-30T05:05:10;1.20;;;1.10;;
1693;SDS011;71975;47.068;15.408;2023-08-30T05:10:13;1.13;;;1.00;;
1693;SDS011;71975;47.068;15.408;2023-08-30T05:15:18;1.13;;;0.73;;
1693;SDS011;71975;47.068;15.408;2023-08-30T05:20:22;1.10;;;1.00;;
1693;SDS011;71975;47.068;15.408;2023-08-30T05:25:25;1.27;;;1.07;;
1693;SDS011;71975;47.068;15.408;2023-08-30T05:30:29;1.20;;;1.10;;
1693;SDS011;71975;47.068;15.408;2023-08-30T05:35:32;1.40;;;0.90;;
1693;SDS011;71975;47.068;15.408;2023-08-30T05:40:35;1.40;;;1.00;;
1693;SDS011;71975;47.068;15.408;2023-08-30T05:45:45;1.20;;;0.80;;
1693;SDS011;71975;47.068;15.408;2023-08-30T05:50:48;1.93;;;0.97;;
1693;SDS011;71975;47.068;15.408;2023-08-30T05:55:50;1.50;;;0.80;;
1693;SDS011;71975;47.068;15.408;2023-08-30T06:00:56;1.80;;;1.20;;
1693;SDS011;71975;47.068;15.408;2023-08-30T06:06:03;2.70;;;1.50;;
1693;SDS011;71975;47.068;15.408;2023-08-30T06:11:06;1.80;;;1.40;;
1693;SDS011;71975;47.068;15.408;2023-08-30T06:16:10;3.00;;;1.70;;
1693;SDS011;71975;47.068;15.408;2023-08-30T06:21:13;1.67;;;1.43;;
1693;SDS011;71975;47.068;15.408;2023-08-30T06:26:16;4.30;;;1.40;;
1693;SDS011;71975;47.068;15.408;2023-08-30T06:31:20;3.70;;;1.93;;
1693;SDS011;71975;47.068;15.408;2023-08-30T06:36:23;2.50;;;1.20;;
1693;SDS011;71975;47.068;15.408;2023-08-30T06:41:26;1.40;;;1.13;;
1693;SDS011;71975;47.068;15.408;2023-08-30T06:46:31;2.07;;;1.23;;
1693;SDS011;71975;47.068;15.408;2023-08-30T06:51:34;1.63;;;1.47;;
1693;SDS011;71975;47.068;15.408;2023-08-30T06:56:36;1.80;;;1.53;;
1693;SDS011;71975;47.068;15.408;2023-08-30T07:01:41;1.37;;;1.27;;
1693;SDS011;71975;47.068;15.408;2023-08-30T07:06:44;2.90;;;1.80;;
1693;SDS011;71975;47.068;15.408;2023-08-30T07:11:47;1.67;;;1.20;;
1693;SDS011;71975;47.068;15.408;2023-08-30T07:16:51;2.13;;;1.60;;
1693;SDS011;71975;47.068;15.408;2023-08-30T07:21:54;1.87;;;1.50;;
1693;SDS011;71975;47.068;15.408;2023-08-30T07:26:57;1.40;;;1.10;;
1693;SDS011;71975;47.068;15.408;2023-08-30T07:32:01;2.73;;;1.27;;
1693;SDS011;71975;47.068;15.408;2023-08-30T07:37:04;1.43;;;1.23;;
1693;SDS011;71975;47.068;15.408;2023-08-30T07:42:07;1.97;;;1.70;;
1693;SDS011;71975;47.068;15.408;2023-08-30T07:47:11;3.00;;;1.57;;
1693;SDS011;71975;47.068;15.408;2023-08-30T07:52:14;3.10;;;1.80;;
1693;SDS011;71975;47.068;15.408;2023-08-30T07:57:21;2.70;;;1.30;;
1693;SDS011;71975;47.068;15.408;2023-08-30T08:02:25;3.00;;;2.00;;
1693;SDS011;71975;47.068;15.408;2023-08-30T08:07:28;1.53;;;1.27;;
1693;SDS011;71975;47.068;15.408;2023-08-30T08:12:32;1.00;;;0.80;;
1693;SDS011;71975;47.068;15.408;2023-08-30T08:17:37;2.90;;;2.27;;
1693;SDS011;71975;47.068;15.408;2023-08-30T08:22:40;2.90;;;2.03;;
1693;SDS011;71975;47.068;15.408;2023-08-30T08:27:42;3.27;;;1.50;;
1693;SDS011;71975;47.068;15.408;2023-08-30T08:32:47;2.37;;;1.67;;
1693;SDS011;71975;47.068;15.408;2023-08-30T08:37:50;2.60;;;1.17;;
1693;SDS011;71975;47.068;15.408;2023-08-30T08:42:53;2.70;;;1.30;;
1693;SDS011;71975;47.068;15.408;2023-08-30T08:47:59;1.63;;;0.90;;
1693;SDS011;71975;47.068;15.408;2023-08-30T08:53:02;3.70;;;1.30;;
1693;SDS011;71975;47.068;15.408;2023-08-30T08:58:06;2.10;;;0.87;;
1693;SDS011;71975;47.068;15.408;2023-08-30T09:03:10;1.40;;;1.10;;
1693;SDS011;71975;47.068;15.408;2023-08-30T09:08:16;2.20;;;1.60;;
1693;SDS011;71975;47.068;15.408;2023-08-30T09:13:19;1.93;;;0.83;;
1693;SDS011;71975;47.068;15.408;2023-08-30T09:18:25;1.67;;;1.13;;
1693;SDS011;71975;47.068;15.408;2023-08-30T09:23:28;1.20;;;0.73;;
1693;SDS011;71975;47.068;15.408;2023-08-30T09:28:31;1.10;;;0.80;;
1693;SDS011;71975;47.068;15.408;2023-08-30T09:33:46;2.20;;;0.83;;
1693;SDS011;71975;47.068;15.408;2023-08-30T09:38:50;1.67;;;1.13;;
1693;SDS011;71975;47.068;15.408;2023-08-30T09:43:54;0.80;;;0.70;;
1693;SDS011;71975;47.068;15.408;2023-08-30T09:49:15;0.80;;;0.60;;
1693;SDS011;71975;47.068;15.408;2023-08-30T09:54:22;1.70;;;0.77;;
1693;SDS011;71975;47.068;15.408;2023-08-30T09:59:28;3.90;;;0.93;;
1693;SDS011;71975;47.068;15.408;2023-08-30T10:04:33;1.37;;;0.60;;
1693;SDS011;71975;47.068;15.408;2023-08-30T10:09:40;2.13;;;1.40;;
1693;SDS011;71975;47.068;15.408;2023-08-30T10:15:04;1.07;;;0.63;;
1693;SDS011;71975;47.068;15.408;2023-08-30T10:20:09;1.20;;;0.60;;
1693;SDS011;71975;47.068;15.408;2023-08-30T10:25:14;1.00;;;0.80;;
1693;SDS011;71975;47.068;15.408;2023-08-30T10:30:22;2.40;;;0.87;;
1693;SDS011;71975;47.068;15.408;2023-08-30T10:35:27;1.20;;;0.70;;
1693;SDS011;71975;47.068;15.408;2023-08-30T10:40:30;1.57;;;1.47;;
1693;SDS011;71975;47.068;15.408;2023-08-30T10:45:33;4.10;;;0.80;;
1693;SDS011;71975;47.068;15.408;2023-08-30T10:50:37;1.00;;;0.77;;
1693;SDS011;71975;47.068;15.408;2023-08-30T10:55:40;0.80;;;0.60;;
1693;SDS011;71975;47.068;15.408;2023-08-30T11:00:43;1.33;;;1.07;;
1693;SDS011;71975;47.068;15.408;2023-08-30T11:05:48;1.07;;;0.73;;
1693;SDS011;71975;47.068;15.408;2023-08-30T11:10:59;4.93;;;0.90;;
1693;SDS011;71975;47.068;15.408;2023-08-30T11:16:03;3.30;;;1.00;;
1693;SDS011;71975;47.068;15.408;2023-08-30T11:21:08;1.13;;;0.80;;
1693;SDS011;71975;47.068;15.408;2023-08-30T11:26:13;2.83;;;1.00;;
1693;SDS011;71975;47.068;15.408;2023-08-30T11:31:18;0.90;;;0.60;;
1693;SDS011;71975;47.068;15.408;2023-08-30T11:36:26;1.47;;;0.50;;
1693;SDS011;71975;47.068;15.408;2023-08-30T11:41:30;0.83;;;0.60;;
1693;SDS011;71975;47.068;15.408;2023-08-30T11:46:34;0.70;;;0.57;;
1693;SDS011;71975;47.068;15.408;2023-08-30T11:51:38;2.43;;;0.50;;
1693;SDS011;71975;47.068;15.408;2023-08-30T11:56:41;1.17;;;0.80;;
1693;SDS011;71975;47.068;15.408;2023-08-30T12:01:44;3.53;;;0.60;;
1693;SDS011;71975;47.068;15.408;2023-08-30T12:06:52;0.80;;;0.70;;
1693;SDS011;71975;47.068;15.408;2023-08-30T12:12:04;0.80;;;0.70;;
1693;SDS011;71975;47.068;15.408;2023-08-30T12:17:08;0.70;;;0.60;;
1693;SDS011;71975;47.068;15.408;2023-08-30T12:22:15;1.00;;;0.63;;
1693;SDS011;71975;47.068;15.408;2023-08-30T12:27:18;0.77;;;0.67;;
1693;SDS011;71975;47.068;15.408;2023-08-30T12:32:21;1.70;;;0.63;;
1693;SDS011;71975;47.068;15.408;2023-08-30T12:37:25;1.07;;;0.60;;
1693;SDS011;71975;47.068;15.408;2023-08-30T12:42:28;1.27;;;0.80;;
1693;SDS011;71975;47.068;15.408;2023-08-30T12:47:31;0.93;;;0.80;;
1693;SDS011;71975;47.068;15.408;2023-08-30T12:52:35;2.00;;;1.33;;
1693;SDS011;71975;47.068;15.408;2023-08-30T12:57:38;1.67;;;1.30;;
1693;SDS011;71975;47.068;15.408;2023-08-30T13:02:41;1.07;;;0.87;;
1693;SDS011;71975;47.068;15.408;2023-08-30T13:07:45;1.60;;;1.20;;
1693;SDS011;71975;47.068;15.408;2023-08-30T13:12:49;1.57;;;0.90;;
1693;SDS011;71975;47.068;15.408;2023-08-30T13:17:52;1.50;;;1.30;;
1693;SDS011;71975;47.068;15.408;2023-08-30T13:22:57;2.30;;;1.30;;
1693;SDS011;71975;47.068;15.408;2023-08-30T13:28:00;2.10;;;0.93;;
1693;SDS011;71975;47.068;15.408;2023-08-30T13:33:04;3.00;;;1.10;;
1693;SDS011;71975;47.068;15.408;2023-08-30T13:38:09;1.20;;;1.00;;
1693;SDS011;71975;47.068;15.408;2023-08-30T13:43:13;1.63;;;1.10;;
1693;SDS011;71975;47.068;15.408;2023-08-30T13:48:17;3.20;;;1.90;;
1693;SDS011;71975;47.068;15.408;2023-08-30T13:53:23;1.50;;;1.03;;
1693;SDS011;71975;47.068;15.408;2023-08-30T13:58:28;2.23;;;1.00;;
1693;SDS011;71975;47.068;15.408;2023-08-30T14:03:33;1.43;;;1.23;;
1693;SDS011;71975;47.068;15.408;2023-08-30T14:08:38;1.97;;;1.13;;
1693;SDS011;71975;47.068;15.408;2023-08-30T14:13:42;0.70;;;0.53;;
1693;SDS011;71975;47.068;15.408;2023-08-30T14:18:47;1.03;;;0.70;;
1693;SDS011;71975;47.068;15.408;2023-08-30T14:23:51;4.40;;;2.97;;
1693;SDS011;71975;47.068;15.408;2023-08-30T14:28:55;1.97;;;1.00;;
1693;SDS011;71975;47.068;15.408;2023-08-30T14:33:59;1.10;;;0.60;;
1693;SDS011;71975;47.068;15.408;2023-08-30T14:39:04;0.90;;;0.80;;
1693;SDS011;71975;47.068;15.408;2023-08-30T14:44:09;1.10;;;0.70;;
1693;SDS011;71975;47.068;15.408;2023-08-30T14:49:14;1.20;;;0.50;;
1693;SDS011;71975;47.068;15.408;2023-08-30T14:54:21;1.20;;;0.80;;
1693;SDS011;71975;47.068;15.408;2023-08-30T14:59:27;1.63;;;0.90;;
1693;SDS011;71975;47.068;15.408;2023-08-30T15:04:32;1.00;;;0.90;;
1693;SDS011;71975;47.068;15.408;2023-08-30T15:09:39;1.40;;;1.20;;
1693;SDS011;71975;47.068;15.408;2023-08-30T15:14:44;2.40;;;1.20;;
1693;SDS011;71975;47.068;15.408;2023-08-30T15:19:50;2.63;;;0.83;;
1693;SDS011;71975;47.068;15.408;2023-08-30T15:24:59;1.33;;;1.03;;
1693;SDS011;71975;47.068;15.408;2023-08-30T15:30:05;1.30;;;0.93;;
1693;SDS011;71975;47.068;15.408;2023-08-30T15:35:11;1.23;;;0.90;;
1693;SDS011;71975;47.068;15.408;2023-08-30T15:40:18;1.40;;;1.03;;
1693;SDS011;71975;47.068;15.408;2023-08-30T15:45:24;1.20;;;1.10;;
1693;SDS011;71975;47.068;15.408;2023-08-30T15:50:30;3.63;;;1.17;;
1693;SDS011;71975;47.068;15.408;2023-08-30T15:55:47;1.73;;;1.10;;
1693;SDS011;71975;47.068;15.408;2023-08-30T16:00:54;1.50;;;1.40;;
1693;SDS011;71975;47.068;15.408;2023-08-30T16:06:02;1.77;;;0.70;;
1693;SDS011;71975;47.068;15.408;2023-08-30T16:11:13;1.30;;;1.13;;
1693;SDS011;71975;47.068;15.408;2023-08-30T16:16:19;1.57;;;1.00;;
1693;SDS011;71975;47.068;15.408;2023-08-30T16:21:28;1.83;;;1.07;;
1693;SDS011;71975;47.068;15.408;2023-08-30T16:26:46;2.30;;;1.20;;
1693;SDS011;71975;47.068;15.408;2023-08-30T16:32:00;1.27;;;0.90;;
1693;SDS011;71975;47.068;15.408;2023-08-30T16:37:08;2.80;;;2.60;;
1693;SDS011;71975;47.068;15.408;2023-08-30T16:42:18;2.13;;;1.93;;
1693;SDS011;71975;47.068;15.408;2023-08-30T16:47:29;1.70;;;1.30;;
1693;SDS011;71975;47.068;15.408;2023-08-30T16:52:57;1.40;;;0.90;;
1693;SDS011;71975;47.068;15.408;2023-08-30T16:58:12;1.37;;;1.10;;
1693;SDS011;71975;47.068;15.408;2023-08-30T17:03:20;1.20;;;0.80;;
1693;SDS011;71975;47.068;15.408;2023-08-30T17:08:26;1.33;;;1.20;;
1693;SDS011;71975;47.068;15.408;2023-08-30T17:13:41;1.10;;;0.93;;
1693;SDS011;71975;47.068;15.408;2023-08-30T17:18:52;2.17;;;0.80;;
1693;SDS011;71975;47.068;15.408;2023-08-30T17:23:58;1.97;;;1.13;;
1693;SDS011;71975;47.068;15.408;2023-08-30T17:29:15;1.77;;;1.63;;
1693;SDS011;71975;47.068;15.408;2023-08-30T17:34:27;2.33;;;1.40;;
1693;SDS011;71975;47.068;15.408;2023-08-30T17:39:35;1.40;;;1.10;;
1693;SDS011;71975;47.068;15.408;2023-08-30T17:44:45;1.63;;;0.93;;
1693;SDS011;71975;47.068;15.408;2023-08-30T17:50:05;3.00;;;1.60;;
1693;SDS011;71975;47.068;15.408;2023-08-30T17:55:15;1.60;;;1.50;;
1693;SDS011;71975;47.068;15.408;2023-08-30T18:00:38;2.93;;;1.50;;
1693;SDS011;71975;47.068;15.408;2023-08-30T18:05:47;1.73;;;1.13;;
1693;SDS011;71975;47.068;15.408;2023-08-30T18:10:57;1.37;;;0.90;;
1693;SDS011;71975;47.068;15.408;2023-08-30T18:16:18;1.57;;;1.30;;
1693;SDS011;71975;47.068;15.408;2023-08-30T18:21:34;1.10;;;1.00;;
1693;SDS011;71975;47.068;15.408;2023-08-30T18:26:43;1.13;;;0.93;;
1693;SDS011;71975;47.068;15.408;2023-08-30T18:31:59;1.30;;;1.17;;
1693;SDS011;71975;47.068;15.408;2023-08-30T18:37:09;1.40;;;1.10;;
1693;SDS011;71975;47.068;15.408;2023-08-30T18:42:26;1.10;;;1.00;;
1693;SDS011;71975;47.068;15.408;2023-08-30T18:47:37;2.70;;;1.40;;
1693;SDS011;71975;47.068;15.408;2023-08-30T18:52:46;3.63;;;1.67;;
1693;SDS011;71975;47.068;15.408;2023-08-30T18:57:58;3.87;;;1.60;;
1693;SDS011;71975;47.068;15.408;2023-08-30T19:03:16;1.63;;;1.40;;
1693;SDS011;71975;47.068;15.408;2023-08-30T19:08:23;1.73;;;1.30;;
1693;SDS011;71975;47.068;15.408;2023-08-30T19:13:29;1.80;;;1.50;;
1693;SDS011;71975;47.068;15.408;2023-08-30T19:18:42;1.87;;;1.67;;
1693;SDS011;71975;47.068;15.408;2023-08-30T19:23:50;2.70;;;1.60;;
1693;SDS011;71975;47.068;15.408;2023-08-30T19:28:59;1.53;;;1.20;;
1693;SDS011;71975;47.068;15.408;2023-08-30T19:34:19;1.67;;;1.57;;
1693;SDS011;71975;47.068;15.408;2023-08-30T19:39:29;1.40;;;1.27;;
1693;SDS011;71975;47.068;15.408;2023-08-30T19:44:35;1.87;;;1.50;;
1693;SDS011;71975;47.068;15.408;2023-08-30T19:49:50;1.37;;;1.07;;
1693;SDS011;71975;47.068;15.408;2023-08-30T19:55:00;1.90;;;1.30;;
1693;SDS011;71975;47.068;15.408;2023-08-30T20:00:07;2.43;;;2.23;;
1693;SDS011;71975;47.068;15.408;2023-08-30T20:05:21;2.00;;;1.30;;
1693;SDS011;71975;47.068;15.408;2023-08-30T20:10:28;2.10;;;1.80;;
1693;SDS011;71975;47.068;15.408;2023-08-30T20:15:36;1.80;;;1.63;;
1693;SDS011;71975;47.068;15.408;2023-08-30T20:20:46;2.50;;;1.33;;
1693;SDS011;71975;47.068;15.408;2023-08-30T20:25:54;2.23;;;1.77;;
1693;SDS011;71975;47.068;15.408;2023-08-30T20:31:01;2.10;;;1.60;;
1693;SDS011;71975;47.068;15.408;2023-08-30T20:36:10;2.20;;;1.77;;
1693;SDS011;71975;47.068;15.408;2023-08-30T20:41:18;2.43;;;1.30;;
1693;SDS011;71975;47.068;15.408;2023-08-30T20:46:27;1.50;;;1.40;;
1693;SDS011;71975;47.068;15.408;2023-08-30T20:51:37;3.00;;;1.67;;
1693;SDS011;71975;47.068;15.408;2023-08-30T20:56:43;1.60;;;1.23;;
1693;SDS011;71975;47.068;15.408;2023-08-30T21:01:49;2.33;;;2.10;;
1693;SDS011;71975;47.068;15.408;2023-08-30T21:06:54;1.43;;;1.33;;
1693;SDS011;71975;47.068;15.408;2023-08-30T21:11:57;2.00;;;1.90;;
1693;SDS011;71975;47.068;15.408;2023-08-30T21:17:00;1.70;;;1.60;;
1693;SDS011;71975;47.068;15.408;2023-08-30T21:22:05;3.13;;;1.90;;
1693;SDS011;71975;47.068;15.408;2023-08-30T21:27:10;3.10;;;1.97;;
1693;SDS011;71975;47.068;15.408;2023-08-30T21:32:13;2.10;;;2.00;;
1693;SDS011;71975;47.068;15.408;2023-08-30T21:37:17;1.63;;;1.50;;
1693;SDS011;71975;47.068;15.408;2023-08-30T21:42:20;1.50;;;1.40;;
1693;SDS011;71975;47.068;15.408;2023-08-30T21:47:23;2.40;;;1.33;;
1693;SDS011;71975;47.068;15.408;2023-08-30T21:52:28;1.73;;;1.20;;
1693;SDS011;71975;47.068;15.408;2023-08-30T21:57:31;4.67;;;1.40;;
1693;SDS011;71975;47.068;15.408;2023-08-30T22:02:34;1.70;;;1.60;;
1693;SDS011;71975;47.068;15.408;2023-08-30T22:07:38;1.63;;;1.43;;
1693;SDS011;71975;47.068;15.408;2023-08-30T22:12:42;1.23;;;1.13;;
1693;SDS011;71975;47.068;15.408;2023-08-30T22:17:46;1.13;;;0.90;;
1693;SDS011;71975;47.068;15.408;2023-08-30T22:22:52;1.80;;;1.57;;
1693;SDS011;71975;47.068;15.408;2023-08-30T22:27:55;1.20;;;1.10;;
1693;SDS011;71975;47.068;15.408;2023-08-30T22:32:58;1.17;;;1.07;;
1693;SDS011;71975;47.068;15.408;2023-08-30T22:38:02;1.40;;;1.00;;
1693;SDS011;71975;47.068;15.408;2023-08-30T22:43:06;1.10;;;0.70;;
1693;SDS011;71975;47.068;15.408;2023-08-30T22:48:11;1.33;;;1.23;;
1693;SDS011;71975;47.068;15.408;2023-08-30T22:53:15;2.30;;;1.07;;
1693;SDS011;71975;47.068;15.408;2023-08-30T22:58:18;1.37;;;1.00;;
1693;SDS011;71975;47.068;15.408;2023-08-30T23:03:21;1.30;;;0.90;;
1693;SDS011;71975;47.068;15.408;2023-08-30T23:08:26;1.10;;;1.00;;
1693;SDS011;71975;47.068;15.408;2023-08-30T23:13:29;1.37;;;1.27;;
1693;SDS011;71975;47.068;15.408;2023-08-30T23:18:32;1.90;;;1.27;;
1693;SDS011;71975;47.068;15.408;2023-08-30T23:23:37;1.90;;;1.80;;
1693;SDS011;71975;47.068;15.408;2023-08-30T23:28:41;1.90;;;1.80;;
1693;SDS011;71975;47.068;15.408;2023-08-30T23:33:45;6.87;;;1.30;;
1693;SDS011;71975;47.068;15.408;2023-08-30T23:38:52;1.53;;;1.43;;
1693;SDS011;71975;47.068;15.408;2023-08-30T23:43:56;1.80;;;1.33;;
1693;SDS011;71975;47.068;15.408;2023-08-30T23:48:59;1.87;;;1.77;;
1693;SDS011;71975;47.068;15.408;2023-08-30T23:54:04;2.10;;;1.87;;
1693;SDS011;71975;47.068;15.408;2023-08-30T23:59:07;3.73;;;1.90;;
